Time;durP1;ratioP1;P1;durP2;ratioP2;P2;SDS_P1;SDS_P2;PMS_P1;PMS_P2;Temp;Humidity;BMP_temperature;BMP_pressure;BME280_temperature;BME280_humidity;BME280_pressure;Samples;Min_cycle;Max_cycle;Signal;HPM_P1;HPM_P2
2023/07/21 00:02:41;;;;;;;2.17;2.07;;;21.30;60.60;;;;;;10380217;28;20187;-78
2023/07/21 00:07:44;;;;;;;2.50;2.30;;;21.30;60.70;;;;;;10383299;28;20223;-78
2023/07/21 00:12:47;;;;;;;2.00;1.90;;;21.30;61.00;;;;;;10373261;28;20222;-79
2023/07/21 00:17:51;;;;;;;2.33;2.23;;;21.30;60.50;;;;;;10383150;28;20273;-79
2023/07/21 00:22:53;;;;;;;2.27;2.17;;;21.30;60.20;;;;;;10380685;28;20651;-78
2023/07/21 00:27:55;;;;;;;2.30;1.83;;;21.30;60.90;;;;;;10378937;28;20247;-80
2023/07/21 00:32:59;;;;;;;2.50;2.23;;;21.30;61.30;;;;;;10378861;28;20613;-78
2023/07/21 00:38:01;;;;;;;2.70;2.50;;;21.40;60.80;;;;;;10380072;28;20269;-79
2023/07/21 00:43:04;;;;;;;2.50;2.03;;;21.30;60.70;;;;;;10381299;28;20600;-78
2023/07/21 00:48:08;;;;;;;2.63;2.43;;;21.30;61.40;;;;;;10383787;28;20641;-81
2023/07/21 00:53:11;;;;;;;3.60;2.30;;;21.30;61.90;;;;;;10382756;28;20354;-78
2023/07/21 00:58:14;;;;;;;2.40;2.20;;;21.30;61.50;;;;;;10385017;28;20258;-78
2023/07/21 01:03:19;;;;;;;2.27;2.17;;;21.30;60.90;;;;;;10368675;28;20191;-79
2023/07/21 01:08:21;;;;;;;2.17;2.07;;;21.30;61.00;;;;;;10389871;28;20230;-81
2023/07/21 01:13:24;;;;;;;2.47;2.27;;;21.30;60.90;;;;;;10373641;28;20272;-80
2023/07/21 01:18:27;;;;;;;2.43;2.33;;;21.30;61.30;;;;;;10361125;28;20226;-79
2023/07/21 01:23:39;;;;;;;4.30;2.90;;;21.40;62.10;;;;;;10361002;28;20222;-79
2023/07/21 01:28:44;;;;;;;2.80;2.60;;;21.40;62.30;;;;;;10367390;28;20234;-79
2023/07/21 01:33:47;;;;;;;3.27;2.97;;;21.40;62.10;;;;;;10374993;28;20306;-80
2023/07/21 01:38:50;;;;;;;2.77;2.53;;;21.30;62.70;;;;;;10375248;28;20693;-80
2023/07/21 01:43:54;;;;;;;3.00;2.80;;;21.30;62.20;;;;;;10376598;28;20274;-81
2023/07/21 01:48:56;;;;;;;3.33;2.40;;;21.20;62.40;;;;;;10375358;28;20251;-80
2023/07/21 01:54:06;;;;;;;2.77;2.50;;;21.20;62.80;;;;;;10375043;28;20230;-80
2023/07/21 01:59:11;;;;;;;2.37;2.27;;;21.10;62.40;;;;;;10374953;28;20234;-80
2023/07/21 02:04:15;;;;;;;2.20;2.10;;;21.10;64.10;;;;;;10355885;28;20217;-80
2023/07/21 02:09:17;;;;;;;2.43;2.33;;;21.10;63.30;;;;;;10379734;28;20728;-80
2023/07/21 02:14:22;;;;;;;2.60;2.40;;;21.10;63.90;;;;;;10400754;28;20220;-80
2023/07/21 02:19:24;;;;;;;2.60;2.40;;;21.10;63.10;;;;;;10380906;28;20219;-78
2023/07/21 02:24:26;;;;;;;3.60;2.47;;;21.10;62.60;;;;;;10375987;28;20192;-78
2023/07/21 02:29:30;;;;;;;2.20;2.10;;;21.00;63.60;;;;;;10373335;28;20593;-78
2023/07/21 02:34:32;;;;;;;3.60;2.10;;;21.00;64.00;;;;;;10372126;28;20298;-78
2023/07/21 02:39:35;;;;;;;2.53;2.33;;;21.00;63.80;;;;;;10372865;28;20681;-79
2023/07/21 02:44:38;;;;;;;2.73;2.53;;;20.90;62.80;;;;;;10373156;28;20294;-79
2023/07/21 02:49:41;;;;;;;2.27;2.17;;;20.80;64.00;;;;;;10372660;28;20655;-78
2023/07/21 02:54:43;;;;;;;2.10;2.00;;;20.80;63.80;;;;;;10355016;28;20212;-78
2023/07/21 02:59:48;;;;;;;2.60;2.30;;;20.90;64.40;;;;;;10380791;28;20226;-80
2023/07/21 03:04:52;;;;;;;2.67;2.50;;;20.90;64.70;;;;;;10370828;28;20191;-79
2023/07/21 03:09:55;;;;;;;2.40;2.30;;;20.90;64.10;;;;;;10399711;22;20239;-87
2023/07/21 03:15:02;;;;;;;3.20;2.60;;;20.80;64.10;;;;;;10361342;28;20219;-86
2023/07/21 03:20:18;;;;;;;2.50;2.20;;;20.80;64.40;;;;;;10361767;28;20227;-89
2023/07/21 03:25:21;;;;;;;2.50;2.30;;;20.70;64.90;;;;;;10374930;28;20195;-88
2023/07/21 03:30:25;;;;;;;2.37;2.27;;;20.60;65.10;;;;;;10379288;28;20215;-87
2023/07/21 03:35:44;;;;;;;2.17;2.03;;;20.60;64.80;;;;;;10372030;28;20215;-85
2023/07/21 03:40:49;;;;;;;2.03;1.93;;;20.50;65.50;;;;;;10380343;28;20199;-90
2023/07/21 03:45:58;;;;;;;2.40;2.20;;;20.50;66.00;;;;;;10380670;28;20192;-89
2023/07/21 03:51:02;;;;;;;2.00;1.90;;;20.50;66.40;;;;;;10385633;28;20235;-89
2023/07/21 03:56:12;;;;;;;2.40;2.20;;;20.50;65.90;;;;;;10371455;28;20231;-86
2023/07/21 04:01:16;;;;;;;3.20;2.10;;;20.50;66.00;;;;;;10384397;28;20242;-87
2023/07/21 04:06:20;;;;;;;2.60;2.40;;;20.50;65.80;;;;;;10382048;28;20848;-88
2023/07/21 04:11:22;;;;;;;2.33;2.13;;;20.50;65.10;;;;;;10384591;28;20204;-89
2023/07/21 04:16:26;;;;;;;2.90;2.60;;;20.60;65.60;;;;;;10390068;28;20211;-89
2023/07/21 04:21:28;;;;;;;3.63;3.33;;;20.60;65.10;;;;;;10380065;28;20224;-88
2023/07/21 04:26:31;;;;;;;2.70;2.50;;;20.60;65.60;;;;;;10377023;28;20215;-87
2023/07/21 04:31:34;;;;;;;2.30;2.20;;;20.70;65.60;;;;;;10368619;28;20199;-87
2023/07/21 04:36:43;;;;;;;3.80;2.13;;;20.80;65.70;;;;;;10355348;28;20241;-86
2023/07/21 04:42:01;;;;;;;2.10;2.00;;;20.80;66.10;;;;;;10368320;28;20671;-86
2023/07/21 04:47:05;;;;;;;2.50;2.30;;;20.80;66.60;;;;;;10376885;28;20212;-86
2023/07/21 04:52:16;;;;;;;4.20;3.77;;;20.90;67.10;;;;;;10385689;28;20331;-87
2023/07/21 04:57:18;;;;;;;2.80;2.33;;;21.00;67.40;;;;;;10349924;28;20608;-88
2023/07/21 05:02:23;;;;;;;2.97;2.67;;;21.10;66.80;;;;;;10379675;28;20203;-84
2023/07/21 05:07:26;;;;;;;2.70;2.50;;;21.20;66.60;;;;;;10368148;28;20227;-87
2023/07/21 05:12:33;;;;;;;2.97;2.67;;;21.20;67.10;;;;;;10371906;28;20285;-85
2023/07/21 05:17:46;;;;;;;3.13;2.50;;;21.30;67.40;;;;;;10375045;28;20246;-84
2023/07/21 05:23:16;;;;;;;2.17;2.07;;;21.40;68.30;;;;;;10382814;28;20659;-86
2023/07/21 05:28:38;;;;;;;2.90;2.53;;;21.50;67.10;;;;;;10377214;28;20295;-85
2023/07/21 05:33:42;;;;;;;3.50;2.40;;;21.50;66.90;;;;;;10383516;28;20258;-86
2023/07/21 05:38:46;;;;;;;2.77;2.57;;;21.60;68.00;;;;;;10376410;28;20592;-87
2023/07/21 05:43:49;;;;;;;2.37;2.00;;;21.70;66.30;;;;;;10378507;28;20187;-85
2023/07/21 05:48:53;;;;;;;2.60;2.40;;;21.80;67.10;;;;;;10377445;28;20704;-87
2023/07/21 05:53:56;;;;;;;3.27;2.70;;;21.80;67.20;;;;;;10381867;28;20216;-86
2023/07/21 05:59:01;;;;;;;2.60;2.40;;;22.00;67.60;;;;;;10377804;28;20219;-85
2023/07/21 06:04:06;;;;;;;2.80;2.60;;;22.10;67.50;;;;;;10385233;28;20202;-86
2023/07/21 06:09:09;;;;;;;2.93;2.73;;;22.30;66.50;;;;;;10372777;28;20227;-85
2023/07/21 06:14:34;;;;;;;2.27;2.07;;;22.40;65.70;;;;;;10334794;28;20224;-86
2023/07/21 06:19:53;;;;;;;3.07;2.70;;;22.60;66.70;;;;;;10373218;28;20219;-85
2023/07/21 06:24:55;;;;;;;4.00;2.97;;;22.80;66.10;;;;;;10377858;28;20290;-86
2023/07/21 06:29:57;;;;;;;3.90;3.30;;;23.00;65.50;;;;;;10363288;28;20240;-85
2023/07/21 06:35:05;;;;;;;2.63;2.37;;;23.20;63.60;;;;;;10364257;28;20228;-85
2023/07/21 06:40:22;;;;;;;2.50;2.30;;;23.40;63.70;;;;;;10369868;28;20298;-85
2023/07/21 06:45:39;;;;;;;3.10;2.13;;;23.50;62.60;;;;;;10368529;28;20199;-86
2023/07/21 06:50:56;;;;;;;2.60;2.50;;;23.70;63.70;;;;;;10369115;28;20203;-85
2023/07/21 06:55:59;;;;;;;2.10;2.00;;;23.80;61.20;;;;;;10350056;28;20231;-85
2023/07/21 07:01:01;;;;;;;3.30;3.00;;;23.90;61.40;;;;;;10365211;28;20297;-85
2023/07/21 07:06:05;;;;;;;5.47;3.30;;;24.00;61.60;;;;;;10367489;28;20212;-85
2023/07/21 07:11:08;;;;;;;3.10;2.90;;;24.10;62.10;;;;;;10349092;28;20206;-85
2023/07/21 07:16:11;;;;;;;2.90;2.67;;;24.30;61.00;;;;;;10352697;28;20274;-85
2023/07/21 07:21:14;;;;;;;4.87;2.70;;;24.50;60.20;;;;;;10358448;28;20203;-86
2023/07/21 07:26:17;;;;;;;5.37;2.33;;;24.60;60.60;;;;;;10317393;28;20215;-85
2023/07/21 07:31:19;;;;;;;4.80;2.50;;;24.70;60.60;;;;;;10352932;28;20241;-85
2023/07/21 07:36:22;;;;;;;3.73;2.37;;;24.70;59.30;;;;;;10370897;28;20266;-85
2023/07/21 07:41:24;;;;;;;5.27;2.40;;;24.90;58.70;;;;;;10354719;28;20199;-85
2023/07/21 07:46:27;;;;;;;4.33;2.63;;;24.90;59.30;;;;;;10350166;28;20622;-85
2023/07/21 07:51:30;;;;;;;6.20;2.33;;;25.10;59.50;;;;;;10355033;28;20203;-86
2023/07/21 07:56:32;;;;;;;4.20;2.00;;;25.40;59.40;;;;;;10352914;28;20223;-85
2023/07/21 08:01:35;;;;;;;2.40;2.10;;;25.80;58.80;;;;;;10349185;28;20258;-86
2023/07/21 08:06:39;;;;;;;2.70;2.47;;;26.20;56.60;;;;;;10342135;28;20311;-87
2023/07/21 08:11:41;;;;;;;2.43;2.23;;;26.30;57.70;;;;;;10363688;28;20225;-85
2023/07/21 08:16:43;;;;;;;3.00;2.30;;;26.50;56.70;;;;;;10366631;28;20645;-85
2023/07/21 08:21:48;;;;;;;2.40;2.20;;;26.50;57.10;;;;;;10362906;28;20566;-85
2023/07/21 08:26:50;;;;;;;7.13;6.43;;;26.50;57.00;;;;;;10360875;28;20571;-87
2023/07/21 08:31:52;;;;;;;3.77;2.37;;;26.40;56.30;;;;;;10348030;28;20196;-88
2023/07/21 08:36:55;;;;;;;3.40;2.67;;;26.40;55.80;;;;;;10342884;28;20227;-87
2023/07/21 08:42:00;;;;;;;3.23;2.17;;;26.60;56.60;;;;;;10341817;28;20207;-86
2023/07/21 08:47:03;;;;;;;2.60;2.40;;;26.90;55.80;;;;;;10341818;28;20216;-85
2023/07/21 08:52:07;;;;;;;2.20;2.10;;;26.90;55.10;;;;;;10337151;28;20212;-86
2023/07/21 08:57:11;;;;;;;4.53;2.33;;;26.90;56.40;;;;;;10349667;28;20224;-87
2023/07/21 09:02:13;;;;;;;3.00;2.23;;;26.90;55.50;;;;;;10344686;28;20200;-86
2023/07/21 09:07:16;;;;;;;1.77;1.67;;;27.20;54.10;;;;;;10341074;28;20758;-86
2023/07/21 09:12:19;;;;;;;1.87;1.77;;;27.60;52.30;;;;;;10343581;28;20200;-85
2023/07/21 09:17:21;;;;;;;3.63;2.17;;;27.90;52.60;;;;;;10344216;28;20691;-85
2023/07/21 09:22:25;;;;;;;2.10;1.93;;;28.30;53.20;;;;;;10335869;28;20204;-86
2023/07/21 09:27:27;;;;;;;2.20;2.00;;;28.60;50.60;;;;;;10333407;28;20220;-88
2023/07/21 09:32:38;;;;;;;1.70;1.60;;;28.90;50.50;;;;;;10332850;28;20203;-88
2023/07/21 09:37:42;;;;;;;1.70;1.60;;;29.30;49.80;;;;;;10332944;28;20278;-88
2023/07/21 09:42:45;;;;;;;2.00;1.90;;;29.80;48.10;;;;;;10353406;28;20188;-87
2023/07/21 09:47:49;;;;;;;1.90;1.80;;;30.30;49.40;;;;;;10340529;28;20216;-88
2023/07/21 09:52:55;;;;;;;2.63;1.80;;;30.80;46.60;;;;;;10328009;28;20676;-87
2023/07/21 09:57:57;;;;;;;2.00;1.90;;;31.40;47.30;;;;;;10338914;28;20224;-85
2023/07/21 10:03:00;;;;;;;2.03;1.93;;;32.00;46.90;;;;;;10345168;28;20368;-85
2023/07/21 10:08:04;;;;;;;2.67;1.73;;;32.50;45.60;;;;;;10344204;28;20228;-85
2023/07/21 10:13:07;;;;;;;2.03;1.90;;;33.10;43.40;;;;;;10343050;28;20215;-85
2023/07/21 10:18:11;;;;;;;2.30;1.83;;;33.70;44.80;;;;;;10343379;28;20637;-85
2023/07/21 10:23:17;;;;;;;1.73;1.63;;;34.70;43.10;;;;;;10345024;28;20203;-85
2023/07/21 10:28:23;;;;;;;2.23;1.77;;;35.10;41.30;;;;;;10348407;28;20223;-85
2023/07/21 10:33:30;;;;;;;2.03;1.93;;;34.30;42.40;;;;;;10347105;28;20216;-85
2023/07/21 10:38:41;;;;;;;2.20;2.10;;;33.10;43.50;;;;;;10342086;28;20698;-85
2023/07/21 10:43:43;;;;;;;1.90;1.80;;;32.00;43.70;;;;;;10343470;28;20204;-85
2023/07/21 10:48:45;;;;;;;2.50;2.30;;;31.00;45.20;;;;;;10347000;28;20730;-85
2023/07/21 10:53:48;;;;;;;2.30;2.10;;;30.10;46.20;;;;;;10342463;28;20223;-85
2023/07/21 10:58:52;;;;;;;2.20;2.00;;;29.30;46.90;;;;;;10339967;28;20215;-86
2023/07/21 11:03:54;;;;;;;2.17;1.80;;;28.90;46.50;;;;;;10368684;28;20654;-86
2023/07/21 11:08:58;;;;;;;2.20;2.00;;;28.70;49.80;;;;;;10361265;28;20238;-87
2023/07/21 11:14:00;;;;;;;1.97;1.87;;;28.60;49.20;;;;;;10379718;28;20557;-85
2023/07/21 11:19:04;;;;;;;2.00;1.90;;;28.50;48.30;;;;;;10345609;28;20223;-85
2023/07/21 11:24:08;;;;;;;2.20;2.10;;;28.40;48.90;;;;;;10344132;28;20196;-85
2023/07/21 11:29:10;;;;;;;1.90;1.80;;;28.20;49.10;;;;;;10346701;28;20713;-85
2023/07/21 11:34:20;;;;;;;1.90;1.80;;;28.20;49.40;;;;;;10343835;28;20226;-85
2023/07/21 11:39:23;;;;;;;2.07;1.93;;;28.30;49.00;;;;;;10342133;28;20622;-86
2023/07/21 11:44:27;;;;;;;2.23;1.77;;;28.30;49.40;;;;;;10349068;28;20195;-85
2023/07/21 11:49:29;;;;;;;2.80;1.97;;;28.30;49.60;;;;;;10347732;28;20690;-85
2023/07/21 11:54:39;;;;;;;2.40;2.20;;;28.20;50.50;;;;;;10349510;28;20222;-85
2023/07/21 11:59:41;;;;;;;2.67;2.50;;;28.00;49.70;;;;;;10346349;28;20594;-85
2023/07/21 12:04:44;;;;;;;2.10;2.00;;;27.80;50.30;;;;;;10343907;28;20191;-85
2023/07/21 12:09:48;;;;;;;2.30;2.20;;;27.50;51.10;;;;;;10348482;28;20231;-85
2023/07/21 12:14:50;;;;;;;3.70;2.80;;;27.30;52.50;;;;;;10351954;28;20648;-85
2023/07/21 12:19:53;;;;;;;2.57;1.90;;;27.00;56.40;;;;;;10362791;28;20302;-88
2023/07/21 12:24:57;;;;;;;2.70;2.50;;;27.00;59.80;;;;;;10337707;28;20295;-86
2023/07/21 12:29:59;;;;;;;2.40;2.20;;;26.90;59.60;;;;;;10334879;28;20223;-85
2023/07/21 12:35:02;;;;;;;3.67;2.27;;;26.60;62.30;;;;;;10342110;28;20258;-85
2023/07/21 12:40:11;;;;;;;2.43;2.23;;;26.20;63.50;;;;;;10345495;28;20215;-84
2023/07/21 12:45:14;;;;;;;2.47;2.27;;;25.80;63.10;;;;;;10334251;28;20601;-84
2023/07/21 12:50:16;;;;;;;4.87;2.70;;;25.50;65.00;;;;;;10341083;28;20224;-85
2023/07/21 12:55:19;;;;;;;2.97;2.10;;;25.20;66.70;;;;;;10337507;28;20212;-85
2023/07/21 13:00:21;;;;;;;4.53;4.13;;;25.00;67.60;;;;;;10340593;28;20224;-86
2023/07/21 13:05:24;;;;;;;2.33;2.23;;;24.80;69.80;;;;;;10347779;28;20543;-85
2023/07/21 13:10:27;;;;;;;2.30;2.20;;;24.80;67.70;;;;;;10353863;28;20226;-87
2023/07/21 13:15:29;;;;;;;2.50;2.30;;;25.00;62.40;;;;;;10376246;28;20192;-87
2023/07/21 13:20:31;;;;;;;2.40;2.20;;;25.30;57.80;;;;;;10349380;28;20226;-86
2023/07/21 13:25:35;;;;;;;7.90;2.30;;;25.50;58.00;;;;;;10346351;28;20488;-87
2023/07/21 13:30:37;;;;;;;2.90;2.30;;;25.90;55.10;;;;;;10349178;28;20219;-87
2023/07/21 13:35:39;;;;;;;2.30;2.20;;;25.90;54.90;;;;;;10345995;28;21031;-87
2023/07/21 13:40:43;;;;;;;2.93;2.20;;;25.90;56.70;;;;;;10350303;28;20219;-87
2023/07/21 13:45:47;;;;;;;2.70;1.90;;;25.90;56.60;;;;;;10356589;28;20203;-86
2023/07/21 13:50:49;;;;;;;2.60;2.00;;;26.00;56.30;;;;;;10351630;28;20216;-87
2023/07/21 13:55:52;;;;;;;2.30;2.10;;;25.90;56.50;;;;;;10337960;28;20268;-87
2023/07/21 14:00:55;;;;;;;3.63;2.20;;;25.80;57.50;;;;;;10352034;28;20234;-87
2023/07/21 14:05:57;;;;;;;2.43;2.30;;;25.60;57.60;;;;;;10355285;28;20188;-84
2023/07/21 14:11:00;;;;;;;2.40;2.20;;;25.30;58.80;;;;;;10349748;28;20286;-85
2023/07/21 14:16:03;;;;;;;1.83;1.73;;;24.90;59.10;;;;;;10351104;28;20774;-85
2023/07/21 14:21:06;;;;;;;8.33;3.10;;;24.70;59.20;;;;;;10346613;28;20299;-87
2023/07/21 14:26:09;;;;;;;2.80;2.60;;;24.40;62.40;;;;;;10356393;28;20719;-87
2023/07/21 14:31:11;;;;;;;3.30;2.30;;;24.20;66.70;;;;;;10348591;28;20199;-87
2023/07/21 14:36:13;;;;;;;2.30;2.20;;;24.10;65.60;;;;;;10367147;28;20219;-85
2023/07/21 14:41:17;;;;;;;2.43;2.23;;;24.00;63.30;;;;;;10378711;28;20208;-87
2023/07/21 14:46:20;;;;;;;2.20;2.00;;;23.80;66.00;;;;;;10377312;28;20211;-85
2023/07/21 14:51:22;;;;;;;3.07;2.87;;;23.50;68.50;;;;;;10377769;28;20206;-84
2023/07/21 14:56:26;;;;;;;4.00;3.70;;;23.00;77.50;;;;;;10373539;28;20222;-85
2023/07/21 15:01:28;;;;;;;5.93;4.93;;;22.40;83.20;;;;;;10357437;28;20205;-85
2023/07/21 15:06:30;;;;;;;5.30;4.90;;;21.80;87.80;;;;;;10395661;23;20253;-80
2023/07/21 15:11:34;;;;;;;4.60;4.30;;;21.20;90.90;;;;;;10279046;28;20189;-80
2023/07/21 15:16:36;;;;;;;4.40;4.10;;;20.70;92.70;;;;;;10273800;28;20216;-78
2023/07/21 15:21:39;;;;;;;5.17;4.80;;;20.20;92.20;;;;;;10268402;28;20207;-77
2023/07/21 15:26:42;;;;;;;4.90;4.50;;;19.70;94.40;;;;;;10275144;28;20217;-78
2023/07/21 15:31:47;;;;;;;4.70;3.70;;;19.60;95.90;;;;;;10278840;28;20209;-81
2023/07/21 15:36:49;;;;;;;6.00;3.80;;;19.40;97.00;;;;;;10273726;28;20236;-78
2023/07/21 15:41:53;;;;;;;3.53;3.33;;;19.30;96.70;;;;;;10271138;28;20568;-80
2023/07/21 15:46:55;;;;;;;3.67;3.37;;;19.40;97.70;;;;;;10272475;28;20618;-79
2023/07/21 15:51:57;;;;;;;3.43;3.13;;;19.70;97.80;;;;;;10278955;28;20208;-80
2023/07/21 15:57:01;;;;;;;4.23;3.03;;;20.00;96.00;;;;;;10280761;28;20228;-79
2023/07/21 16:02:03;;;;;;;3.27;3.00;;;20.30;97.20;;;;;;10273663;28;20205;-79
2023/07/21 16:07:05;;;;;;;2.77;2.57;;;20.60;96.20;;;;;;10279472;28;20220;-80
2023/07/21 16:12:09;;;;;;;2.87;2.67;;;20.80;95.10;;;;;;10275280;28;20205;-78
2023/07/21 16:17:11;;;;;;;3.13;2.93;;;20.90;94.20;;;;;;10269430;28;20225;-79
2023/07/21 16:22:14;;;;;;;2.83;2.63;;;21.00;94.40;;;;;;10272328;28;20204;-78
2023/07/21 16:27:21;;;;;;;3.47;2.70;;;21.10;94.00;;;;;;10272514;28;20691;-79
2023/07/21 16:32:23;;;;;;;2.70;2.50;;;21.20;93.30;;;;;;10289301;28;20201;-81
2023/07/21 16:37:25;;;;;;;2.53;2.33;;;21.30;94.20;;;;;;10293171;28;20271;-81
2023/07/21 16:42:30;;;;;;;2.80;2.60;;;21.40;93.20;;;;;;10287184;28;20217;-80
2023/07/21 16:47:32;;;;;;;3.20;3.00;;;21.50;93.40;;;;;;10287889;28;20226;-81
2023/07/21 16:52:35;;;;;;;2.90;2.70;;;21.60;92.10;;;;;;10287261;28;20687;-81
2023/07/21 16:57:38;;;;;;;3.00;2.40;;;21.60;92.70;;;;;;10284817;28;20339;-81
2023/07/21 17:02:40;;;;;;;2.50;2.30;;;21.80;91.40;;;;;;10285948;28;20201;-81
2023/07/21 17:07:42;;;;;;;2.57;2.37;;;21.80;92.60;;;;;;10280367;28;20664;-80
2023/07/21 17:12:47;;;;;;;3.20;2.70;;;21.90;91.40;;;;;;10280582;28;20193;-80
2023/07/21 17:17:49;;;;;;;2.50;2.30;;;21.90;91.30;;;;;;10281503;28;20228;-81
2023/07/21 17:22:51;;;;;;;2.00;1.80;;;22.00;91.50;;;;;;10287589;28;20255;-81
2023/07/21 17:27:54;;;;;;;3.20;3.00;;;22.00;91.10;;;;;;10284667;28;20247;-81
2023/07/21 17:32:57;;;;;;;4.93;4.40;;;22.00;90.40;;;;;;10280332;28;20211;-80
2023/07/21 17:37:59;;;;;;;3.30;2.83;;;22.00;90.30;;;;;;10276673;28;20708;-80
2023/07/21 17:43:03;;;;;;;2.67;2.47;;;21.90;90.30;;;;;;10278572;28;20216;-81
2023/07/21 17:48:06;;;;;;;2.80;2.47;;;21.90;90.40;;;;;;10278747;28;20217;-80
2023/07/21 17:53:09;;;;;;;3.57;2.87;;;21.80;90.50;;;;;;10284160;28;20942;-80
2023/07/21 17:58:12;;;;;;;2.83;2.63;;;21.80;90.60;;;;;;10261366;28;20228;-80
2023/07/21 18:03:14;;;;;;;3.37;2.73;;;21.80;90.50;;;;;;10273712;28;20546;-80
2023/07/21 18:08:16;;;;;;;2.57;2.37;;;21.90;89.10;;;;;;10277727;28;20221;-79
2023/07/21 18:13:25;;;;;;;3.00;2.80;;;21.90;90.90;;;;;;10279038;28;20248;-80
2023/07/21 18:18:29;;;;;;;2.73;2.53;;;21.90;90.70;;;;;;10278677;28;20303;-80
2023/07/21 18:23:31;;;;;;;5.23;2.70;;;21.90;88.80;;;;;;10281431;28;20260;-81
2023/07/21 18:28:35;;;;;;;2.87;2.50;;;21.90;88.30;;;;;;10282491;28;20677;-81
2023/07/21 18:33:37;;;;;;;2.47;2.27;;;21.80;87.10;;;;;;10282002;28;20263;-81
2023/07/21 18:38:42;;;;;;;2.70;2.50;;;21.70;88.10;;;;;;10288657;28;20229;-81
2023/07/21 18:43:45;;;;;;;6.50;6.00;;;21.70;89.30;;;;;;10284037;28;20197;-81
2023/07/21 18:48:48;;;;;;;2.80;2.60;;;21.70;87.30;;;;;;10274652;28;20209;-80
2023/07/21 18:53:50;;;;;;;3.17;2.97;;;21.60;88.10;;;;;;10274065;28;20236;-80
2023/07/21 18:58:54;;;;;;;3.00;2.80;;;21.50;89.80;;;;;;10276290;28;20225;-81
2023/07/21 19:03:57;;;;;;;3.10;2.73;;;21.50;90.60;;;;;;10275663;28;20579;-80
2023/07/21 19:08:59;;;;;;;2.83;2.63;;;21.30;90.90;;;;;;10257967;28;20688;-80
2023/07/21 19:14:02;;;;;;;3.97;3.67;;;21.20;91.10;;;;;;10276894;28;20225;-81
2023/07/21 19:19:05;;;;;;;4.40;3.90;;;21.00;91.10;;;;;;10277457;28;20822;-80
2023/07/21 19:24:07;;;;;;;3.13;2.83;;;20.80;91.40;;;;;;10292518;28;20197;-81
2023/07/21 19:29:10;;;;;;;3.03;2.83;;;20.60;91.50;;;;;;10275294;28;20219;-80
2023/07/21 19:34:12;;;;;;;3.20;3.00;;;20.30;91.20;;;;;;10280103;28;20670;-80
2023/07/21 19:39:15;;;;;;;10.50;3.23;;;20.20;91.30;;;;;;10272321;28;20225;-80
2023/07/21 19:44:18;;;;;;;2.87;2.53;;;20.10;91.50;;;;;;10283532;28;20197;-80
2023/07/21 19:49:20;;;;;;;3.00;2.80;;;19.90;91.30;;;;;;10276369;28;20240;-79
2023/07/21 19:54:23;;;;;;;4.00;2.93;;;19.80;91.80;;;;;;10278269;28;20665;-80
2023/07/21 19:59:26;;;;;;;3.20;3.00;;;19.70;91.90;;;;;;10279787;28;20217;-81
2023/07/21 20:04:28;;;;;;;3.50;3.20;;;19.70;92.10;;;;;;10276904;28;20570;-81
2023/07/21 20:09:31;;;;;;;3.53;3.03;;;19.60;92.00;;;;;;10284978;28;20240;-81
2023/07/21 20:14:34;;;;;;;3.00;2.80;;;19.50;92.00;;;;;;10281396;28;20193;-80
2023/07/21 20:19:36;;;;;;;4.23;3.83;;;19.50;91.90;;;;;;10287786;28;20227;-80
2023/07/21 20:24:38;;;;;;;3.87;2.90;;;19.40;92.20;;;;;;10299881;28;20205;-80
2023/07/21 20:29:42;;;;;;;3.40;3.20;;;19.40;91.90;;;;;;10319416;28;20573;-78
2023/07/21 20:34:44;;;;;;;3.27;3.03;;;19.30;91.70;;;;;;10315951;28;20221;-78
2023/07/21 20:39:46;;;;;;;3.20;3.00;;;19.20;91.60;;;;;;10318443;28;20213;-81
2023/07/21 20:44:49;;;;;;;3.60;3.30;;;19.20;91.80;;;;;;10321270;28;20193;-78
2023/07/21 20:49:51;;;;;;;3.10;2.90;;;19.10;91.80;;;;;;10285472;28;20299;-79
2023/07/21 20:54:54;;;;;;;3.67;3.37;;;19.10;91.80;;;;;;10279445;28;20684;-79
2023/07/21 20:59:58;;;;;;;3.13;2.93;;;19.10;91.50;;;;;;10283263;28;20244;-78
2023/07/21 21:05:00;;;;;;;3.40;3.10;;;19.10;91.70;;;;;;10276875;28;20208;-79
2023/07/21 21:10:04;;;;;;;4.23;3.07;;;19.10;91.30;;;;;;10417998;23;20237;-91
2023/07/21 21:15:09;;;;;;;3.17;2.97;;;19.10;91.20;;;;;;10456179;28;20198;-89
2023/07/21 21:20:11;;;;;;;2.70;2.60;;;19.10;91.00;;;;;;10444103;28;20234;-86
2023/07/21 21:25:14;;;;;;;3.77;2.53;;;19.20;91.30;;;;;;10415605;28;20254;-89
2023/07/21 21:30:18;;;;;;;3.37;2.57;;;19.20;91.20;;;;;;10423220;28;20238;-89
2023/07/21 21:35:20;;;;;;;2.63;2.43;;;19.30;90.70;;;;;;10417353;28;20202;-92
2023/07/21 21:40:24;;;;;;;2.70;2.50;;;19.30;90.40;;;;;;10438501;28;20217;-86
2023/07/21 21:45:28;;;;;;;3.20;2.97;;;19.30;90.50;;;;;;10425371;28;20237;-88
2023/07/21 21:50:30;;;;;;;3.00;2.80;;;19.30;90.00;;;;;;10432697;28;20214;-89
2023/07/21 21:55:33;;;;;;;3.07;2.77;;;19.30;90.00;;;;;;10420635;28;20234;-87
2023/07/21 22:00:40;;;;;;;2.90;2.70;;;19.30;89.60;;;;;;10417657;28;20291;-87
2023/07/21 22:05:46;;;;;;;2.70;2.50;;;19.30;89.20;;;;;;10415034;28;20196;-89
2023/07/21 22:10:49;;;;;;;3.10;2.83;;;19.30;89.30;;;;;;10427533;28;20482;-88
2023/07/21 22:15:55;;;;;;;2.80;2.60;;;19.30;88.30;;;;;;10428784;28;20281;-89
2023/07/21 22:20:58;;;;;;;2.97;2.77;;;19.40;87.70;;;;;;10427659;28;20219;-87
2023/07/21 22:26:05;;;;;;;2.80;2.60;;;19.50;86.30;;;;;;10424392;28;20191;-87
2023/07/21 22:31:16;;;;;;;3.07;2.87;;;19.50;86.30;;;;;;10428444;28;20318;-87
2023/07/21 22:36:20;;;;;;;2.87;2.77;;;19.50;87.00;;;;;;10424449;28;20348;-89
2023/07/21 22:41:25;;;;;;;2.90;2.70;;;19.60;86.30;;;;;;10427300;28;20216;-88
2023/07/21 22:46:31;;;;;;;2.80;2.60;;;19.60;86.30;;;;;;10407288;28;20191;-87
2023/07/21 22:51:33;;;;;;;3.03;2.73;;;19.50;86.40;;;;;;10417085;28;20223;-88
2023/07/21 22:56:36;;;;;;;2.90;2.70;;;19.50;85.90;;;;;;10424505;28;20234;-87
2023/07/21 23:01:39;;;;;;;2.60;2.40;;;19.50;86.40;;;;;;10426373;28;20270;-87
2023/07/21 23:06:43;;;;;;;2.53;2.43;;;19.40;86.40;;;;;;10419940;28;20234;-87
2023/07/21 23:11:45;;;;;;;2.50;2.40;;;19.40;86.50;;;;;;10404494;28;20222;-91
2023/07/21 23:16:49;;;;;;;2.60;2.40;;;19.40;86.70;;;;;;10408999;28;20211;-88
2023/07/21 23:21:52;;;;;;;3.00;2.80;;;19.40;87.10;;;;;;10425217;28;20221;-90
2023/07/21 23:26:54;;;;;;;2.90;2.70;;;19.30;87.20;;;;;;10426548;28;20321;-87
2023/07/21 23:31:58;;;;;;;2.40;2.30;;;19.40;86.50;;;;;;10429560;28;20218;-87
2023/07/21 23:37:01;;;;;;;3.23;2.93;;;19.40;87.20;;;;;;10416363;28;20332;-89
2023/07/21 23:42:03;;;;;;;3.20;3.00;;;19.40;87.90;;;;;;10424844;28;20195;-92
2023/07/21 23:47:07;;;;;;;3.13;2.83;;;19.50;87.40;;;;;;10425168;28;20287;-89
2023/07/21 23:52:09;;;;;;;6.07;2.80;;;19.40;87.60;;;;;;10416635;28;20207;-87
2023/07/21 23:57:12;;;;;;;2.97;2.73;;;19.50;87.90;;;;;;10433725;28;20235;-87
